sensor_id;sensor_type;location;lat;lon;timestamp;temperature;humidity
27795;DHT22;15176;50.844;4.412;2022-08-27T00:00:37;21.70;99.90
27795;DHT22;15176;50.844;4.412;2022-08-27T00:03:02;21.70;99.90
27795;DHT22;15176;50.844;4.412;2022-08-27T00:05:28;21.40;99.90
27795;DHT22;15176;50.844;4.412;2022-08-27T00:07:54;21.20;99.90
27795;DHT22;15176;50.844;4.412;2022-08-27T00:10:23;21.20;99.90
27795;DHT22;15176;50.844;4.412;2022-08-27T00:12:49;21.40;99.90
27795;DHT22;15176;50.844;4.412;2022-08-27T00:15:16;21.40;99.90
27795;DHT22;15176;50.844;4.412;2022-08-27T00:17:42;21.30;99.90
27795;DHT22;15176;50.844;4.412;2022-08-27T00:20:10;21.40;99.90
27795;DHT22;15176;50.844;4.412;2022-08-27T00:22:36;21.60;99.90
27795;DHT22;15176;50.844;4.412;2022-08-27T00:25:03;21.70;99.90
27795;DHT22;15176;50.844;4.412;2022-08-27T00:27:29;21.80;99.90
27795;DHT22;15176;50.844;4.412;2022-08-27T00:29:55;21.70;99.90
27795;DHT22;15176;50.844;4.412;2022-08-27T00:32:20;21.70;99.90
27795;DHT22;15176;50.844;4.412;2022-08-27T00:34:46;21.80;99.90
27795;DHT22;15176;50.844;4.412;2022-08-27T00:37:12;21.80;99.90
27795;DHT22;15176;50.844;4.412;2022-08-27T00:39:37;21.50;99.90
27795;DHT22;15176;50.844;4.412;2022-08-27T00:42:04;21.40;99.90
27795;DHT22;15176;50.844;4.412;2022-08-27T00:44:30;21.30;99.90
27795;DHT22;15176;50.844;4.412;2022-08-27T00:47:02;21.40;99.90
27795;DHT22;15176;50.844;4.412;2022-08-27T00:49:43;21.30;99.90
27795;DHT22;15176;50.844;4.412;2022-08-27T00:52:22;21.30;99.90
27795;DHT22;15176;50.844;4.412;2022-08-27T00:54:59;21.20;99.90
27795;DHT22;15176;50.844;4.412;2022-08-27T00:57:26;21.40;99.90
27795;DHT22;15176;50.844;4.412;2022-08-27T00:59:52;21.40;99.90
27795;DHT22;15176;50.844;4.412;2022-08-27T01:02:18;21.20;99.90
27795;DHT22;15176;50.844;4.412;2022-08-27T01:05:06;21.10;99.90
27795;DHT22;15176;50.844;4.412;2022-08-27T01:07:36;21.00;99.90
27795;DHT22;15176;50.844;4.412;2022-08-27T01:10:04;21.20;99.90
27795;DHT22;15176;50.844;4.412;2022-08-27T01:12:32;21.40;99.90
27795;DHT22;15176;50.844;4.412;2022-08-27T01:15:00;21.50;99.90
27795;DHT22;15176;50.844;4.412;2022-08-27T01:17:27;21.40;99.90
27795;DHT22;15176;50.844;4.412;2022-08-27T01:19:56;21.40;99.90
27795;DHT22;15176;50.844;4.412;2022-08-27T01:25:00;21.20;99.90
27795;DHT22;15176;50.844;4.412;2022-08-27T01:27:28;21.20;99.90
27795;DHT22;15176;50.844;4.412;2022-08-27T01:29:56;21.20;99.90
27795;DHT22;15176;50.844;4.412;2022-08-27T01:32:26;21.20;99.90
27795;DHT22;15176;50.844;4.412;2022-08-27T01:34:52;21.30;99.90
27795;DHT22;15176;50.844;4.412;2022-08-27T01:37:22;21.30;99.90
27795;DHT22;15176;50.844;4.412;2022-08-27T01:39:48;21.40;99.90
27795;DHT22;15176;50.844;4.412;2022-08-27T01:42:15;21.40;99.90
27795;DHT22;15176;50.844;4.412;2022-08-27T01:44:56;21.40;99.90
27795;DHT22;15176;50.844;4.412;2022-08-27T01:47:24;21.50;99.90
27795;DHT22;15176;50.844;4.412;2022-08-27T01:49:50;21.50;99.90
27795;DHT22;15176;50.844;4.412;2022-08-27T01:52:19;21.40;99.90
27795;DHT22;15176;50.844;4.412;2022-08-27T01:54:46;21.30;99.90
27795;DHT22;15176;50.844;4.412;2022-08-27T01:57:13;21.30;99.90
27795;DHT22;15176;50.844;4.412;2022-08-27T01:59:39;21.40;99.90
27795;DHT22;15176;50.844;4.412;2022-08-27T02:02:05;21.60;99.90
27795;DHT22;15176;50.844;4.412;2022-08-27T02:04:31;21.60;99.90
27795;DHT22;15176;50.844;4.412;2022-08-27T02:06:57;21.40;99.90
27795;DHT22;15176;50.844;4.412;2022-08-27T02:09:24;21.30;99.90
27795;DHT22;15176;50.844;4.412;2022-08-27T02:11:50;21.40;99.90
27795;DHT22;15176;50.844;4.412;2022-08-27T02:14:16;21.50;99.90
27795;DHT22;15176;50.844;4.412;2022-08-27T02:16:42;21.40;99.90
27795;DHT22;15176;50.844;4.412;2022-08-27T02:19:08;21.50;99.90
27795;DHT22;15176;50.844;4.412;2022-08-27T02:21:34;21.40;99.90
27795;DHT22;15176;50.844;4.412;2022-08-27T02:24:01;21.20;99.90
27795;DHT22;15176;50.844;4.412;2022-08-27T02:26:27;21.20;99.90
27795;DHT22;15176;50.844;4.412;2022-08-27T02:28:54;21.50;99.90
27795;DHT22;15176;50.844;4.412;2022-08-27T02:31:20;21.70;99.90
27795;DHT22;15176;50.844;4.412;2022-08-27T02:33:46;21.90;99.90
27795;DHT22;15176;50.844;4.412;2022-08-27T02:36:13;22.00;99.90
27795;DHT22;15176;50.844;4.412;2022-08-27T02:38:39;22.20;99.90
27795;DHT22;15176;50.844;4.412;2022-08-27T02:41:05;22.30;99.90
27795;DHT22;15176;50.844;4.412;2022-08-27T02:43:31;22.30;99.90
27795;DHT22;15176;50.844;4.412;2022-08-27T02:45:57;22.20;99.90
27795;DHT22;15176;50.844;4.412;2022-08-27T02:48:23;22.10;99.90
27795;DHT22;15176;50.844;4.412;2022-08-27T02:50:50;21.90;99.90
27795;DHT22;15176;50.844;4.412;2022-08-27T02:53:16;21.80;99.90
27795;DHT22;15176;50.844;4.412;2022-08-27T02:55:43;21.70;99.90
27795;DHT22;15176;50.844;4.412;2022-08-27T02:58:09;21.70;99.90
27795;DHT22;15176;50.844;4.412;2022-08-27T03:00:37;21.60;99.90
27795;DHT22;15176;50.844;4.412;2022-08-27T03:03:03;21.60;99.90
27795;DHT22;15176;50.844;4.412;2022-08-27T03:05:28;21.50;99.90
27795;DHT22;15176;50.844;4.412;2022-08-27T03:07:54;21.60;99.90
27795;DHT22;15176;50.844;4.412;2022-08-27T03:10:20;21.60;99.90
27795;DHT22;15176;50.844;4.412;2022-08-27T03:12:47;21.50;99.90
27795;DHT22;15176;50.844;4.412;2022-08-27T03:15:15;21.50;99.90
27795;DHT22;15176;50.844;4.412;2022-08-27T03:17:41;21.50;99.90
27795;DHT22;15176;50.844;4.412;2022-08-27T03:20:26;21.30;99.90
27795;DHT22;15176;50.844;4.412;2022-08-27T03:22:52;21.20;99.90
27795;DHT22;15176;50.844;4.412;2022-08-27T03:25:18;21.10;99.90
27795;DHT22;15176;50.844;4.412;2022-08-27T03:27:44;21.10;99.90
27795;DHT22;15176;50.844;4.412;2022-08-27T03:30:12;21.10;99.90
27795;DHT22;15176;50.844;4.412;2022-08-27T03:32:40;21.00;99.90
27795;DHT22;15176;50.844;4.412;2022-08-27T03:35:07;21.00;99.90
27795;DHT22;15176;50.844;4.412;2022-08-27T03:37:33;21.00;99.90
27795;DHT22;15176;50.844;4.412;2022-08-27T03:39:59;21.00;99.90
27795;DHT22;15176;50.844;4.412;2022-08-27T03:42:24;20.90;99.90
27795;DHT22;15176;50.844;4.412;2022-08-27T03:44:50;21.00;99.90
27795;DHT22;15176;50.844;4.412;2022-08-27T03:47:16;21.20;99.90
27795;DHT22;15176;50.844;4.412;2022-08-27T03:49:43;21.30;99.90
27795;DHT22;15176;50.844;4.412;2022-08-27T03:52:08;21.30;99.90
27795;DHT22;15176;50.844;4.412;2022-08-27T03:54:38;21.40;99.90
27795;DHT22;15176;50.844;4.412;2022-08-27T03:57:04;21.40;99.90
27795;DHT22;15176;50.844;4.412;2022-08-27T03:59:30;21.30;99.90
27795;DHT22;15176;50.844;4.412;2022-08-27T04:01:56;21.40;99.90
27795;DHT22;15176;50.844;4.412;2022-08-27T04:04:22;21.40;99.90
27795;DHT22;15176;50.844;4.412;2022-08-27T04:06:50;21.30;99.90
27795;DHT22;15176;50.844;4.412;2022-08-27T04:09:17;21.10;99.90
27795;DHT22;15176;50.844;4.412;2022-08-27T04:11:42;21.10;99.90
27795;DHT22;15176;50.844;4.412;2022-08-27T04:14:08;21.20;99.90
27795;DHT22;15176;50.844;4.412;2022-08-27T04:16:35;21.10;99.90
27795;DHT22;15176;50.844;4.412;2022-08-27T04:19:03;21.10;99.90
27795;DHT22;15176;50.844;4.412;2022-08-27T04:21:29;21.20;99.90
27795;DHT22;15176;50.844;4.412;2022-08-27T04:23:57;21.10;99.90
27795;DHT22;15176;50.844;4.412;2022-08-27T04:26:23;21.10;99.90
27795;DHT22;15176;50.844;4.412;2022-08-27T04:28:48;21.20;99.90
27795;DHT22;15176;50.844;4.412;2022-08-27T04:31:15;21.30;99.90
27795;DHT22;15176;50.844;4.412;2022-08-27T04:33:41;21.20;99.90
27795;DHT22;15176;50.844;4.412;2022-08-27T04:36:08;21.10;99.90
27795;DHT22;15176;50.844;4.412;2022-08-27T04:38:37;21.20;99.90
27795;DHT22;15176;50.844;4.412;2022-08-27T04:41:07;21.10;99.90
27795;DHT22;15176;50.844;4.412;2022-08-27T04:43:54;21.30;99.90
27795;DHT22;15176;50.844;4.412;2022-08-27T04:46:23;21.10;99.90
27795;DHT22;15176;50.844;4.412;2022-08-27T04:48:49;21.10;99.90
27795;DHT22;15176;50.844;4.412;2022-08-27T04:51:15;21.20;99.90
27795;DHT22;15176;50.844;4.412;2022-08-27T04:53:43;21.20;99.90
27795;DHT22;15176;50.844;4.412;2022-08-27T04:56:13;21.20;99.90
27795;DHT22;15176;50.844;4.412;2022-08-27T04:58:40;21.40;99.90
27795;DHT22;15176;50.844;4.412;2022-08-27T05:01:05;21.60;99.90
27795;DHT22;15176;50.844;4.412;2022-08-27T05:03:32;21.70;99.90
27795;DHT22;15176;50.844;4.412;2022-08-27T05:06:04;21.70;99.90
27795;DHT22;15176;50.844;4.412;2022-08-27T05:08:31;21.60;99.90
27795;DHT22;15176;50.844;4.412;2022-08-27T05:10:57;21.60;99.90
27795;DHT22;15176;50.844;4.412;2022-08-27T05:13:24;21.80;99.90
27795;DHT22;15176;50.844;4.412;2022-08-27T05:16:01;21.90;99.90
27795;DHT22;15176;50.844;4.412;2022-08-27T05:18:28;21.80;99.90
27795;DHT22;15176;50.844;4.412;2022-08-27T05:20:54;21.70;99.90
27795;DHT22;15176;50.844;4.412;2022-08-27T05:23:24;21.70;99.90
27795;DHT22;15176;50.844;4.412;2022-08-27T05:25:52;21.60;99.90
27795;DHT22;15176;50.844;4.412;2022-08-27T05:28:20;21.60;99.90
27795;DHT22;15176;50.844;4.412;2022-08-27T05:30:48;21.50;99.90
27795;DHT22;15176;50.844;4.412;2022-08-27T05:33:16;21.40;99.90
27795;DHT22;15176;50.844;4.412;2022-08-27T05:35:54;21.30;99.90
27795;DHT22;15176;50.844;4.412;2022-08-27T05:38:21;21.30;99.90
27795;DHT22;15176;50.844;4.412;2022-08-27T05:40:47;21.00;99.90
27795;DHT22;15176;50.844;4.412;2022-08-27T05:43:14;21.10;99.90
27795;DHT22;15176;50.844;4.412;2022-08-27T05:45:42;21.10;99.90
27795;DHT22;15176;50.844;4.412;2022-08-27T05:48:08;21.30;99.90
27795;DHT22;15176;50.844;4.412;2022-08-27T05:50:40;21.20;99.90
27795;DHT22;15176;50.844;4.412;2022-08-27T05:53:06;21.10;99.90
27795;DHT22;15176;50.844;4.412;2022-08-27T05:55:50;21.30;99.90
27795;DHT22;15176;50.844;4.412;2022-08-27T05:58:15;21.30;99.90
27795;DHT22;15176;50.844;4.412;2022-08-27T06:00:59;21.30;99.90
27795;DHT22;15176;50.844;4.412;2022-08-27T06:03:36;21.30;99.90
27795;DHT22;15176;50.844;4.412;2022-08-27T06:06:04;21.00;99.90
27795;DHT22;15176;50.844;4.412;2022-08-27T06:08:30;21.00;99.90
27795;DHT22;15176;50.844;4.412;2022-08-27T06:10:58;21.10;99.90
27795;DHT22;15176;50.844;4.412;2022-08-27T06:13:26;21.20;99.90
27795;DHT22;15176;50.844;4.412;2022-08-27T06:16:04;21.40;99.90
27795;DHT22;15176;50.844;4.412;2022-08-27T06:18:31;21.50;99.90
27795;DHT22;15176;50.844;4.412;2022-08-27T06:20:58;21.40;99.90
27795;DHT22;15176;50.844;4.412;2022-08-27T06:23:24;21.30;99.90
27795;DHT22;15176;50.844;4.412;2022-08-27T06:25:50;21.20;99.90
27795;DHT22;15176;50.844;4.412;2022-08-27T06:28:19;21.10;99.90
27795;DHT22;15176;50.844;4.412;2022-08-27T06:30:45;21.30;99.90
27795;DHT22;15176;50.844;4.412;2022-08-27T06:33:10;21.40;99.90
27795;DHT22;15176;50.844;4.412;2022-08-27T06:35:39;21.40;99.90
27795;DHT22;15176;50.844;4.412;2022-08-27T06:38:04;21.40;99.90
27795;DHT22;15176;50.844;4.412;2022-08-27T06:40:30;21.40;99.90
27795;DHT22;15176;50.844;4.412;2022-08-27T06:42:56;21.50;99.90
27795;DHT22;15176;50.844;4.412;2022-08-27T06:45:21;21.20;99.90
27795;DHT22;15176;50.844;4.412;2022-08-27T06:47:47;21.20;99.90
27795;DHT22;15176;50.844;4.412;2022-08-27T06:50:13;21.20;99.90
27795;DHT22;15176;50.844;4.412;2022-08-27T06:52:38;21.40;99.90
27795;DHT22;15176;50.844;4.412;2022-08-27T06:55:05;21.40;99.90
27795;DHT22;15176;50.844;4.412;2022-08-27T06:57:32;21.30;99.90
27795;DHT22;15176;50.844;4.412;2022-08-27T06:59:58;21.30;99.90
27795;DHT22;15176;50.844;4.412;2022-08-27T07:02:23;21.40;99.90
27795;DHT22;15176;50.844;4.412;2022-08-27T07:04:51;21.50;99.90
27795;DHT22;15176;50.844;4.412;2022-08-27T07:07:18;21.30;99.90
27795;DHT22;15176;50.844;4.412;2022-08-27T07:09:43;21.40;99.90
27795;DHT22;15176;50.844;4.412;2022-08-27T07:12:09;21.60;99.90
27795;DHT22;15176;50.844;4.412;2022-08-27T07:14:35;21.80;99.90
27795;DHT22;15176;50.844;4.412;2022-08-27T07:17:01;21.90;99.90
27795;DHT22;15176;50.844;4.412;2022-08-27T07:19:27;21.90;99.90
27795;DHT22;15176;50.844;4.412;2022-08-27T07:21:54;21.50;99.90
27795;DHT22;15176;50.844;4.412;2022-08-27T07:24:20;21.70;99.90
27795;DHT22;15176;50.844;4.412;2022-08-27T07:26:46;21.70;99.90
27795;DHT22;15176;50.844;4.412;2022-08-27T07:29:13;22.00;99.90
27795;DHT22;15176;50.844;4.412;2022-08-27T07:31:39;22.30;99.90
27795;DHT22;15176;50.844;4.412;2022-08-27T07:34:06;22.30;99.90
27795;DHT22;15176;50.844;4.412;2022-08-27T07:36:33;22.50;99.90
27795;DHT22;15176;50.844;4.412;2022-08-27T07:38:59;22.60;99.90
27795;DHT22;15176;50.844;4.412;2022-08-27T07:41:25;23.10;99.90
27795;DHT22;15176;50.844;4.412;2022-08-27T07:43:51;23.60;99.90
27795;DHT22;15176;50.844;4.412;2022-08-27T07:46:35;24.10;99.90
27795;DHT22;15176;50.844;4.412;2022-08-27T07:49:01;24.50;99.90
27795;DHT22;15176;50.844;4.412;2022-08-27T07:51:27;24.80;99.90
27795;DHT22;15176;50.844;4.412;2022-08-27T07:53:56;25.10;99.00
27795;DHT22;15176;50.844;4.412;2022-08-27T07:56:21;25.30;98.40
27795;DHT22;15176;50.844;4.412;2022-08-27T07:58:48;25.80;97.10
27795;DHT22;15176;50.844;4.412;2022-08-27T08:01:14;26.10;95.90
27795;DHT22;15176;50.844;4.412;2022-08-27T08:03:40;26.00;95.70
27795;DHT22;15176;50.844;4.412;2022-08-27T08:06:11;26.30;94.50
27795;DHT22;15176;50.844;4.412;2022-08-27T08:08:38;26.30;94.00
27795;DHT22;15176;50.844;4.412;2022-08-27T08:11:06;26.10;93.70
27795;DHT22;15176;50.844;4.412;2022-08-27T08:13:33;26.50;93.20
27795;DHT22;15176;50.844;4.412;2022-08-27T08:15:58;26.60;92.10
27795;DHT22;15176;50.844;4.412;2022-08-27T08:18:26;26.60;91.70
27795;DHT22;15176;50.844;4.412;2022-08-27T08:20:52;26.70;90.90
27795;DHT22;15176;50.844;4.412;2022-08-27T08:23:17;26.90;90.70
27795;DHT22;15176;50.844;4.412;2022-08-27T08:25:44;27.30;90.00
27795;DHT22;15176;50.844;4.412;2022-08-27T08:28:09;27.60;88.10
27795;DHT22;15176;50.844;4.412;2022-08-27T08:30:36;27.60;86.00
27795;DHT22;15176;50.844;4.412;2022-08-27T08:33:02;28.10;84.70
27795;DHT22;15176;50.844;4.412;2022-08-27T08:35:27;28.30;81.30
27795;DHT22;15176;50.844;4.412;2022-08-27T08:37:53;28.40;78.30
27795;DHT22;15176;50.844;4.412;2022-08-27T08:40:30;28.50;78.50
27795;DHT22;15176;50.844;4.412;2022-08-27T08:42:56;28.20;78.80
27795;DHT22;15176;50.844;4.412;2022-08-27T08:45:28;27.80;80.40
27795;DHT22;15176;50.844;4.412;2022-08-27T08:50:42;27.50;80.40
27795;DHT22;15176;50.844;4.412;2022-08-27T08:53:24;27.60;78.60
27795;DHT22;15176;50.844;4.412;2022-08-27T08:56:07;27.50;77.20
27795;DHT22;15176;50.844;4.412;2022-08-27T08:58:56;27.40;77.80
27795;DHT22;15176;50.844;4.412;2022-08-27T09:01:25;27.40;77.90
27795;DHT22;15176;50.844;4.412;2022-08-27T09:03:57;27.70;77.40
27795;DHT22;15176;50.844;4.412;2022-08-27T09:09:22;28.50;73.60
27795;DHT22;15176;50.844;4.412;2022-08-27T09:12:00;28.80;72.50
27795;DHT22;15176;50.844;4.412;2022-08-27T09:14:33;28.80;72.40
27795;DHT22;15176;50.844;4.412;2022-08-27T09:17:01;28.80;70.60
27795;DHT22;15176;50.844;4.412;2022-08-27T09:19:27;28.70;70.40
27795;DHT22;15176;50.844;4.412;2022-08-27T09:27:14;29.40;66.50
27795;DHT22;15176;50.844;4.412;2022-08-27T09:29:52;28.90;67.00
27795;DHT22;15176;50.844;4.412;2022-08-27T09:32:37;28.40;67.80
27795;DHT22;15176;50.844;4.412;2022-08-27T09:35:07;28.50;67.60
27795;DHT22;15176;50.844;4.412;2022-08-27T09:37:43;28.80;65.40
27795;DHT22;15176;50.844;4.412;2022-08-27T09:40:21;28.90;65.60
27795;DHT22;15176;50.844;4.412;2022-08-27T09:42:50;29.00;65.70
27795;DHT22;15176;50.844;4.412;2022-08-27T09:45:19;29.10;64.60
27795;DHT22;15176;50.844;4.412;2022-08-27T09:47:48;29.00;63.80
27795;DHT22;15176;50.844;4.412;2022-08-27T09:50:18;29.00;64.70
27795;DHT22;15176;50.844;4.412;2022-08-27T09:52:51;29.20;63.50
27795;DHT22;15176;50.844;4.412;2022-08-27T09:55:47;29.10;63.70
27795;DHT22;15176;50.844;4.412;2022-08-27T09:58:25;29.20;64.40
27795;DHT22;15176;50.844;4.412;2022-08-27T10:03:27;29.80;62.20
27795;DHT22;15176;50.844;4.412;2022-08-27T10:05:53;30.10;61.00
27795;DHT22;15176;50.844;4.412;2022-08-27T10:10:58;30.50;59.00
27795;DHT22;15176;50.844;4.412;2022-08-27T10:13:32;30.10;59.30
27795;DHT22;15176;50.844;4.412;2022-08-27T10:27:09;28.00;62.50
27795;DHT22;15176;50.844;4.412;2022-08-27T10:30:01;28.40;62.00
27795;DHT22;15176;50.844;4.412;2022-08-27T10:33:18;28.10;62.30
27795;DHT22;15176;50.844;4.412;2022-08-27T10:35:20;28.20;62.20
27795;DHT22;15176;50.844;4.412;2022-08-27T10:40:37;29.00;60.20
27795;DHT22;15176;50.844;4.412;2022-08-27T10:43:56;29.20;58.60
27795;DHT22;15176;50.844;4.412;2022-08-27T10:46:38;29.30;58.20
27795;DHT22;15176;50.844;4.412;2022-08-27T10:51:57;30.10;57.70
27795;DHT22;15176;50.844;4.412;2022-08-27T10:54:37;30.40;56.50
27795;DHT22;15176;50.844;4.412;2022-08-27T10:57:28;30.70;56.10
27795;DHT22;15176;50.844;4.412;2022-08-27T11:00:05;30.70;55.30
27795;DHT22;15176;50.844;4.412;2022-08-27T11:02:55;30.70;55.20
27795;DHT22;15176;50.844;4.412;2022-08-27T11:05:28;30.30;55.40
27795;DHT22;15176;50.844;4.412;2022-08-27T11:08:05;30.40;55.60
27795;DHT22;15176;50.844;4.412;2022-08-27T11:10:36;30.40;55.70
27795;DHT22;15176;50.844;4.412;2022-08-27T11:13:30;31.00;55.10
27795;DHT22;15176;50.844;4.412;2022-08-27T11:15:58;31.30;54.30
27795;DHT22;15176;50.844;4.412;2022-08-27T11:18:53;30.90;54.60
27795;DHT22;15176;50.844;4.412;2022-08-27T11:23:57;30.40;55.60
27795;DHT22;15176;50.844;4.412;2022-08-27T11:26:24;30.30;55.70
27795;DHT22;15176;50.844;4.412;2022-08-27T11:28:55;29.90;56.20
27795;DHT22;15176;50.844;4.412;2022-08-27T11:32:02;29.50;57.00
27795;DHT22;15176;50.844;4.412;2022-08-27T11:34:43;29.10;59.30
27795;DHT22;15176;50.844;4.412;2022-08-27T11:40:28;28.60;61.20
27795;DHT22;15176;50.844;4.412;2022-08-27T11:43:02;28.40;61.00
27795;DHT22;15176;50.844;4.412;2022-08-27T11:45:32;28.50;61.00
27795;DHT22;15176;50.844;4.412;2022-08-27T11:48:17;28.40;61.00
27795;DHT22;15176;50.844;4.412;2022-08-27T11:50:56;28.00;62.10
27795;DHT22;15176;50.844;4.412;2022-08-27T11:53:26;27.90;62.90
27795;DHT22;15176;50.844;4.412;2022-08-27T11:55:53;27.70;64.00
27795;DHT22;15176;50.844;4.412;2022-08-27T12:00:47;27.10;65.80
27795;DHT22;15176;50.844;4.412;2022-08-27T12:05:47;27.00;67.20
27795;DHT22;15176;50.844;4.412;2022-08-27T12:16:52;26.90;68.20
27795;DHT22;15176;50.844;4.412;2022-08-27T12:19:28;26.50;69.60
27795;DHT22;15176;50.844;4.412;2022-08-27T12:30:37;25.90;73.20
27795;DHT22;15176;50.844;4.412;2022-08-27T12:33:13;26.00;73.50
27795;DHT22;15176;50.844;4.412;2022-08-27T12:35:49;25.90;73.40
27795;DHT22;15176;50.844;4.412;2022-08-27T12:38:19;26.00;73.70
27795;DHT22;15176;50.844;4.412;2022-08-27T12:40:48;26.10;73.70
27795;DHT22;15176;50.844;4.412;2022-08-27T12:43:23;26.10;73.60
27795;DHT22;15176;50.844;4.412;2022-08-27T12:46:14;26.10;73.60
27795;DHT22;15176;50.844;4.412;2022-08-27T12:48:46;26.40;73.30
27795;DHT22;15176;50.844;4.412;2022-08-27T12:51:22;26.50;72.70
27795;DHT22;15176;50.844;4.412;2022-08-27T13:00:11;26.70;71.90
27795;DHT22;15176;50.844;4.412;2022-08-27T13:05:11;26.50;72.50
27795;DHT22;15176;50.844;4.412;2022-08-27T13:07:42;26.50;72.90
27795;DHT22;15176;50.844;4.412;2022-08-27T13:10:34;26.30;72.90
27795;DHT22;15176;50.844;4.412;2022-08-27T13:13:07;26.30;73.30
27795;DHT22;15176;50.844;4.412;2022-08-27T13:15:34;26.60;73.00
27795;DHT22;15176;50.844;4.412;2022-08-27T13:18:02;26.80;72.60
27795;DHT22;15176;50.844;4.412;2022-08-27T13:20:29;27.10;71.70
27795;DHT22;15176;50.844;4.412;2022-08-27T13:22:55;27.00;71.40
27795;DHT22;15176;50.844;4.412;2022-08-27T13:25:33;27.30;71.00
27795;DHT22;15176;50.844;4.412;2022-08-27T13:28:10;27.00;71.50
27795;DHT22;15176;50.844;4.412;2022-08-27T13:30:43;26.90;72.10
27795;DHT22;15176;50.844;4.412;2022-08-27T13:33:19;26.70;72.20
27795;DHT22;15176;50.844;4.412;2022-08-27T13:35:45;26.60;72.80
27795;DHT22;15176;50.844;4.412;2022-08-27T13:38:14;26.50;72.70
27795;DHT22;15176;50.844;4.412;2022-08-27T13:43:25;26.50;73.90
27795;DHT22;15176;50.844;4.412;2022-08-27T13:45:53;26.30;74.20
27795;DHT22;15176;50.844;4.412;2022-08-27T13:48:20;26.20;74.90
27795;DHT22;15176;50.844;4.412;2022-08-27T13:50:51;26.30;74.80
27795;DHT22;15176;50.844;4.412;2022-08-27T13:53:27;26.00;75.60
27795;DHT22;15176;50.844;4.412;2022-08-27T13:56:29;26.10;75.80
27795;DHT22;15176;50.844;4.412;2022-08-27T13:59:10;26.20;75.90
27795;DHT22;15176;50.844;4.412;2022-08-27T14:01:36;26.40;75.40
27795;DHT22;15176;50.844;4.412;2022-08-27T14:04:05;26.50;75.00
27795;DHT22;15176;50.844;4.412;2022-08-27T14:06:40;26.50;75.20
27795;DHT22;15176;50.844;4.412;2022-08-27T14:11:48;26.40;75.60
27795;DHT22;15176;50.844;4.412;2022-08-27T14:14:14;26.30;76.10
27795;DHT22;15176;50.844;4.412;2022-08-27T14:16:40;26.20;76.50
27795;DHT22;15176;50.844;4.412;2022-08-27T14:19:25;26.30;76.50
27795;DHT22;15176;50.844;4.412;2022-08-27T14:21:51;26.40;75.70
27795;DHT22;15176;50.844;4.412;2022-08-27T14:24:17;26.40;76.10
27795;DHT22;15176;50.844;4.412;2022-08-27T14:26:43;26.30;76.10
27795;DHT22;15176;50.844;4.412;2022-08-27T14:29:12;26.10;76.90
27795;DHT22;15176;50.844;4.412;2022-08-27T14:31:38;26.10;77.20
27795;DHT22;15176;50.844;4.412;2022-08-27T14:34:04;26.20;76.60
27795;DHT22;15176;50.844;4.412;2022-08-27T14:36:32;26.30;75.10
27795;DHT22;15176;50.844;4.412;2022-08-27T14:38:58;26.20;74.10
27795;DHT22;15176;50.844;4.412;2022-08-27T14:41:24;26.20;74.30
27795;DHT22;15176;50.844;4.412;2022-08-27T14:43:50;26.30;74.60
27795;DHT22;15176;50.844;4.412;2022-08-27T14:46:23;26.20;75.10
27795;DHT22;15176;50.844;4.412;2022-08-27T14:48:53;26.10;75.70
27795;DHT22;15176;50.844;4.412;2022-08-27T14:51:24;26.10;75.40
27795;DHT22;15176;50.844;4.412;2022-08-27T14:53:50;25.90;75.80
27795;DHT22;15176;50.844;4.412;2022-08-27T14:56:16;26.20;75.30
27795;DHT22;15176;50.844;4.412;2022-08-27T14:58:42;26.00;75.90
27795;DHT22;15176;50.844;4.412;2022-08-27T15:01:09;26.10;76.30
27795;DHT22;15176;50.844;4.412;2022-08-27T15:03:41;26.30;75.60
27795;DHT22;15176;50.844;4.412;2022-08-27T15:06:07;26.30;75.30
27795;DHT22;15176;50.844;4.412;2022-08-27T15:08:33;26.30;75.90
27795;DHT22;15176;50.844;4.412;2022-08-27T15:10:59;26.20;76.00
27795;DHT22;15176;50.844;4.412;2022-08-27T15:13:25;26.20;75.50
27795;DHT22;15176;50.844;4.412;2022-08-27T15:15:51;25.90;76.60
27795;DHT22;15176;50.844;4.412;2022-08-27T15:18:16;25.80;77.20
27795;DHT22;15176;50.844;4.412;2022-08-27T15:20:42;25.80;76.90
27795;DHT22;15176;50.844;4.412;2022-08-27T15:23:10;25.60;76.50
27795;DHT22;15176;50.844;4.412;2022-08-27T15:25:37;25.50;77.20
27795;DHT22;15176;50.844;4.412;2022-08-27T15:28:03;25.50;77.20
27795;DHT22;15176;50.844;4.412;2022-08-27T15:30:31;25.70;76.60
27795;DHT22;15176;50.844;4.412;2022-08-27T15:32:57;25.80;75.80
27795;DHT22;15176;50.844;4.412;2022-08-27T15:35:25;25.70;75.70
27795;DHT22;15176;50.844;4.412;2022-08-27T15:37:53;25.70;74.90
27795;DHT22;15176;50.844;4.412;2022-08-27T15:40:20;25.70;74.80
27795;DHT22;15176;50.844;4.412;2022-08-27T15:42:51;25.50;75.20
27795;DHT22;15176;50.844;4.412;2022-08-27T15:45:17;25.50;75.80
27795;DHT22;15176;50.844;4.412;2022-08-27T15:47:43;25.70;75.60
27795;DHT22;15176;50.844;4.412;2022-08-27T15:50:09;25.60;76.00
27795;DHT22;15176;50.844;4.412;2022-08-27T15:52:35;25.80;76.10
27795;DHT22;15176;50.844;4.412;2022-08-27T15:55:01;25.70;76.80
27795;DHT22;15176;50.844;4.412;2022-08-27T15:57:27;25.80;76.50
27795;DHT22;15176;50.844;4.412;2022-08-27T15:59:52;25.60;77.40
27795;DHT22;15176;50.844;4.412;2022-08-27T16:02:21;25.60;77.10
27795;DHT22;15176;50.844;4.412;2022-08-27T16:04:48;25.70;78.30
27795;DHT22;15176;50.844;4.412;2022-08-27T16:07:14;25.60;77.60
27795;DHT22;15176;50.844;4.412;2022-08-27T16:09:40;25.70;77.60
27795;DHT22;15176;50.844;4.412;2022-08-27T16:12:06;25.80;77.60
27795;DHT22;15176;50.844;4.412;2022-08-27T16:14:33;25.60;78.30
27795;DHT22;15176;50.844;4.412;2022-08-27T16:16:59;25.60;78.90
27795;DHT22;15176;50.844;4.412;2022-08-27T16:19:25;25.70;78.50
27795;DHT22;15176;50.844;4.412;2022-08-27T16:21:51;25.60;78.80
27795;DHT22;15176;50.844;4.412;2022-08-27T16:24:18;25.40;79.10
27795;DHT22;15176;50.844;4.412;2022-08-27T16:26:45;25.50;79.30
27795;DHT22;15176;50.844;4.412;2022-08-27T16:29:13;25.40;79.50
27795;DHT22;15176;50.844;4.412;2022-08-27T16:31:39;25.40;79.30
27795;DHT22;15176;50.844;4.412;2022-08-27T16:34:11;25.30;79.50
27795;DHT22;15176;50.844;4.412;2022-08-27T16:36:39;25.20;80.30
27795;DHT22;15176;50.844;4.412;2022-08-27T16:39:05;25.20;80.40
27795;DHT22;15176;50.844;4.412;2022-08-27T16:41:30;25.20;80.90
27795;DHT22;15176;50.844;4.412;2022-08-27T16:43:56;25.20;81.20
27795;DHT22;15176;50.844;4.412;2022-08-27T16:46:23;25.20;81.80
27795;DHT22;15176;50.844;4.412;2022-08-27T16:48:49;25.30;81.80
27795;DHT22;15176;50.844;4.412;2022-08-27T16:51:34;25.30;81.30
27795;DHT22;15176;50.844;4.412;2022-08-27T16:54:02;25.00;82.10
27795;DHT22;15176;50.844;4.412;2022-08-27T16:56:29;25.20;81.80
27795;DHT22;15176;50.844;4.412;2022-08-27T16:58:54;25.20;81.80
27795;DHT22;15176;50.844;4.412;2022-08-27T17:01:21;25.20;82.00